createdAt,value
2023-04-10T00:01:19.450Z,46.68
2023-04-10T00:02:51.164Z,45.54
2023-04-10T00:04:22.809Z,46.61
2023-04-10T00:05:55.072Z,47.31
2023-04-10T00:07:26.330Z,48.03
2023-04-10T00:08:58.043Z,46.41
2023-04-10T00:10:29.568Z,47.63
2023-04-10T00:12:00.941Z,52.04
2023-04-10T00:13:32.288Z,51.94
2023-04-10T00:15:03.910Z,52.22
2023-04-10T00:16:35.260Z,53.03
2023-04-10T00:18:06.597Z,54.75
2023-04-10T00:19:37.961Z,57.87
2023-04-10T00:21:09.296Z,56.96
2023-04-10T00:22:40.511Z,54.92
2023-04-10T00:24:11.718Z,59.39
2023-04-10T00:25:43.000Z,61.29
2023-04-10T00:27:14.565Z,59.84
2023-04-10T00:28:45.986Z,62.52
2023-04-10T00:30:17.308Z,61.26
2023-04-10T00:31:48.516Z,61.73
2023-04-10T00:33:19.884Z,61.54
2023-04-10T00:34:51.274Z,59.59
2023-04-10T00:36:22.543Z,60.34
2023-04-10T00:37:53.919Z,62.70
2023-04-10T00:39:25.207Z,63.62
2023-04-10T00:40:56.611Z,68.20
2023-04-10T00:42:27.860Z,64.00
2023-04-10T00:43:59.126Z,67.07
2023-04-10T00:45:30.696Z,69.04
2023-04-10T00:47:02.070Z,67.51
2023-04-10T00:48:33.264Z,70.08
2023-04-10T00:50:04.564Z,66.77
2023-04-10T00:51:35.923Z,68.36
2023-04-10T00:53:07.104Z,69.21
2023-04-10T00:54:38.655Z,66.88
2023-04-10T00:56:10.147Z,69.83
2023-04-10T00:57:41.416Z,68.75
2023-04-10T00:59:12.573Z,71.75
2023-04-10T01:00:43.892Z,71.50
2023-04-10T01:02:15.302Z,72.73
2023-04-10T01:03:46.719Z,72.18
2023-04-10T01:05:18.094Z,71.05
2023-04-10T01:06:49.295Z,73.46
2023-04-10T01:08:20.565Z,72.50
2023-04-10T01:09:51.863Z,74.41
2023-04-10T01:11:23.345Z,74.59
2023-04-10T01:12:54.769Z,75.17
2023-04-10T01:14:26.300Z,73.56
2023-04-10T01:15:57.582Z,72.09
2023-04-10T01:17:28.782Z,69.50
2023-04-10T01:19:00.027Z,71.03
2023-04-10T01:20:31.624Z,70.10
2023-04-10T01:22:02.850Z,68.27
2023-04-10T01:23:34.275Z,68.89
2023-04-10T01:25:05.561Z,68.14
2023-04-10T01:26:36.753Z,71.23
2023-04-10T01:28:08.220Z,69.80
2023-04-10T01:29:39.648Z,67.58
2023-04-10T01:31:11.243Z,68.94
2023-04-10T01:32:42.847Z,67.14
2023-04-10T01:34:14.386Z,69.21
2023-04-10T01:35:45.868Z,67.62
2023-04-10T01:37:17.135Z,65.08
2023-04-10T01:38:50.057Z,66.16
2023-04-10T01:40:21.268Z,70.30
2023-04-10T01:41:52.571Z,68.07
2023-04-10T01:43:23.958Z,66.32
2023-04-10T01:44:55.148Z,64.97
2023-04-10T01:46:26.444Z,64.85
2023-04-10T01:48:21.585Z,65.16
2023-04-10T01:50:22.112Z,65.02
2023-04-10T01:51:53.340Z,65.47
2023-04-10T01:53:24.765Z,66.96
2023-04-10T01:54:56.192Z,62.37
2023-04-10T01:56:27.578Z,63.52
2023-04-10T01:57:59.167Z,64.17
2023-04-10T01:59:30.491Z,62.06
2023-04-10T02:01:01.668Z,62.37
2023-04-10T02:02:33.157Z,62.12
2023-04-10T02:04:04.605Z,61.26
2023-04-10T02:05:36.083Z,60.06
2023-04-10T02:07:07.712Z,58.65
2023-04-10T02:08:39.233Z,57.48
2023-04-10T02:10:15.699Z,57.72
2023-04-10T02:11:47.268Z,55.75
2023-04-10T02:13:18.641Z,56.90
2023-04-10T02:14:50.228Z,54.81
2023-04-10T02:16:21.676Z,55.57
2023-04-10T02:17:53.475Z,54.76
2023-04-10T02:19:24.695Z,55.52
2023-04-10T02:20:55.864Z,53.00
2023-04-10T02:22:27.476Z,55.75
2023-04-10T02:23:58.768Z,52.70
2023-04-10T02:25:30.292Z,54.10
2023-04-10T02:27:01.716Z,53.25
2023-04-10T02:28:33.203Z,54.67
2023-04-10T02:30:05.029Z,53.03
2023-04-10T02:31:36.328Z,54.87
2023-04-10T02:33:07.726Z,52.27
2023-04-10T02:34:39.003Z,51.65
2023-04-10T02:36:10.374Z,51.41
2023-04-10T02:37:41.648Z,48.56
2023-04-10T02:39:12.925Z,49.03
2023-04-10T02:40:44.399Z,48.63
2023-04-10T02:42:15.859Z,47.42
2023-04-10T02:43:47.457Z,46.55
2023-04-10T02:45:18.912Z,46.15
2023-04-10T02:46:51.476Z,46.31
2023-04-10T02:48:23.015Z,45.80
2023-04-10T02:49:54.519Z,43.91
2023-04-10T02:51:25.893Z,46.34
2023-04-10T02:52:57.544Z,45.05
2023-04-10T02:54:28.767Z,46.38
2023-04-10T02:56:00.397Z,43.77
2023-04-10T02:57:31.724Z,42.41
2023-04-10T02:59:03.169Z,43.00
2023-04-10T03:00:34.618Z,41.98
2023-04-10T03:02:06.014Z,41.07
2023-04-10T03:03:37.537Z,39.72
2023-04-10T03:05:09.053Z,37.77
2023-04-10T03:06:40.352Z,38.52
2023-04-10T03:08:11.534Z,37.76
2023-04-10T03:09:42.930Z,36.89
2023-04-10T03:11:14.178Z,36.94
2023-04-10T03:12:45.663Z,37.46
2023-04-10T03:14:17.067Z,37.77
2023-04-10T03:15:48.574Z,34.39
2023-04-10T03:17:20.131Z,35.16
2023-04-10T03:18:51.315Z,37.01
2023-04-10T03:20:22.593Z,36.96
2023-04-10T03:21:54.077Z,36.84
2023-04-10T03:23:25.357Z,34.83
2023-04-10T03:24:56.796Z,35.25
2023-04-10T03:26:28.106Z,34.64
2023-04-10T03:27:59.603Z,33.41
2023-04-10T03:29:30.928Z,35.92
2023-04-10T03:31:02.228Z,34.96
2023-04-10T03:32:33.554Z,34.29
2023-04-10T03:34:05.171Z,35.15
2023-04-10T03:35:36.509Z,35.34
2023-04-10T03:37:07.939Z,35.67
2023-04-10T03:38:39.721Z,34.30
2023-04-10T03:40:11.117Z,34.81
2023-04-10T03:41:42.696Z,34.26
2023-04-10T03:43:14.088Z,35.23
2023-04-10T03:44:45.562Z,34.73
2023-04-10T03:46:16.858Z,33.22
2023-04-10T03:47:48.344Z,33.90
2023-04-10T03:49:19.584Z,33.08
2023-04-10T03:50:50.851Z,33.44
2023-04-10T03:52:22.073Z,32.69
2023-04-10T03:53:53.974Z,32.21
2023-04-10T03:55:25.596Z,32.82
2023-04-10T03:56:57.186Z,31.24
2023-04-10T03:58:28.661Z,31.48
2023-04-10T03:59:59.916Z,30.99
2023-04-10T04:01:31.102Z,30.68
2023-04-10T04:03:02.626Z,32.40
2023-04-10T04:04:34.432Z,31.82
2023-04-10T04:06:05.925Z,28.96
2023-04-10T04:07:37.234Z,29.22
2023-04-10T04:09:08.775Z,29.91
2023-04-10T04:10:40.357Z,29.48
2023-04-10T04:12:11.602Z,28.93
2023-04-10T04:13:43.506Z,30.16
2023-04-10T04:15:14.689Z,28.35
2023-04-10T04:16:46.064Z,29.91
2023-04-10T04:18:17.297Z,28.43
2023-04-10T04:19:48.669Z,28.63
2023-04-10T04:21:20.237Z,28.14
2023-04-10T04:22:51.683Z,30.95
2023-04-10T04:24:23.169Z,30.36
2023-04-10T04:25:54.426Z,29.46
2023-04-10T04:27:25.935Z,29.48
2023-04-10T04:28:57.176Z,28.58
2023-04-10T04:30:28.532Z,27.23
2023-04-10T04:31:59.763Z,27.71
2023-04-10T04:33:31.083Z,27.20
2023-04-10T04:35:02.668Z,25.81
2023-04-10T04:36:34.209Z,25.82
2023-04-10T04:38:05.630Z,24.73
2023-04-10T04:39:37.095Z,25.24
2023-04-10T04:41:08.399Z,24.99
2023-04-10T04:42:39.593Z,26.40
2023-04-10T04:44:10.809Z,25.70
2023-04-10T04:45:42.051Z,26.02
2023-04-10T04:47:13.344Z,27.08
2023-04-10T04:48:44.769Z,26.51
2023-04-10T04:50:16.273Z,31.85
2023-04-10T04:51:47.863Z,35.11
2023-04-10T04:53:19.143Z,34.18
2023-04-10T04:54:50.499Z,37.14
2023-04-10T04:56:21.842Z,35.21
2023-04-10T04:57:53.603Z,40.03
2023-04-10T04:59:24.883Z,40.10
2023-04-10T05:00:56.078Z,40.85
2023-04-10T05:02:27.471Z,41.86
2023-04-10T05:03:58.970Z,42.46
2023-04-10T05:05:30.242Z,42.91
2023-04-10T05:07:01.579Z,43.29
2023-04-10T05:08:32.866Z,44.78
2023-04-10T05:10:04.503Z,43.35
2023-04-10T05:11:35.775Z,44.07
2023-04-10T05:13:07.225Z,47.51
2023-04-10T05:14:38.810Z,47.45
2023-04-10T05:16:10.015Z,49.72
2023-04-10T05:17:41.507Z,50.29
2023-04-10T05:19:12.769Z,51.26
2023-04-10T05:20:44.221Z,48.91
2023-04-10T05:22:18.019Z,49.05
2023-04-10T05:23:49.874Z,49.11
2023-04-10T05:25:21.040Z,49.19
2023-04-10T05:26:52.563Z,50.81
2023-04-10T05:28:24.109Z,51.04
2023-04-10T05:29:55.447Z,49.28
2023-04-10T05:31:26.731Z,46.80
2023-04-10T05:32:58.168Z,47.67
2023-04-10T05:34:29.468Z,46.16
2023-04-10T05:36:00.956Z,45.13
2023-04-10T05:37:32.308Z,43.48
2023-04-10T05:39:03.495Z,44.66
2023-04-10T05:40:34.876Z,44.62
2023-04-10T05:42:06.092Z,45.24
2023-04-10T05:43:37.798Z,44.39
2023-04-10T05:45:09.385Z,43.21
2023-04-10T05:46:40.883Z,44.02
2023-04-10T05:48:12.248Z,44.36
2023-04-10T05:49:45.020Z,41.54
2023-04-10T05:51:16.595Z,41.38
2023-04-10T05:52:48.006Z,39.23
2023-04-10T05:54:19.281Z,38.49
2023-04-10T05:55:50.638Z,41.93
2023-04-10T05:57:21.921Z,40.67
2023-04-10T05:58:53.396Z,38.80
2023-04-10T06:00:25.049Z,38.47
2023-04-10T06:01:56.540Z,37.72
2023-04-10T06:03:27.994Z,38.12
2023-04-10T06:04:59.524Z,36.79
2023-04-10T06:06:30.994Z,35.29
2023-04-10T06:08:02.366Z,36.88
2023-04-10T06:09:33.905Z,38.38
2023-04-10T06:11:05.573Z,34.97
2023-04-10T06:12:36.777Z,32.74
2023-04-10T06:14:07.992Z,32.09
2023-04-10T06:15:39.563Z,33.95
2023-04-10T06:17:10.973Z,32.48
2023-04-10T06:18:42.275Z,32.77
2023-04-10T06:20:13.626Z,32.59
2023-04-10T06:21:45.296Z,31.05
2023-04-10T06:23:16.679Z,30.85
2023-04-10T06:24:48.259Z,31.25
2023-04-10T06:26:19.656Z,28.19
2023-04-10T06:27:51.161Z,27.85
2023-04-10T06:29:22.724Z,28.65
2023-04-10T06:30:53.986Z,28.77
2023-04-10T06:32:25.233Z,28.81
2023-04-10T06:33:56.839Z,29.52
2023-04-10T06:35:28.184Z,26.74
2023-04-10T06:36:59.657Z,27.62
2023-04-10T06:38:30.960Z,27.44
2023-04-10T06:40:02.231Z,27.91
2023-04-10T06:41:33.419Z,27.00
2023-04-10T06:43:10.273Z,27.49
2023-04-10T06:44:41.865Z,26.06
2023-04-10T06:46:13.150Z,27.59
2023-04-10T06:47:44.790Z,26.88
2023-04-10T06:49:16.348Z,25.82
2023-04-10T06:50:48.254Z,24.75
2023-04-10T06:52:19.747Z,23.72
2023-04-10T06:53:51.271Z,22.22
2023-04-10T06:55:22.839Z,21.24
2023-04-10T06:56:54.466Z,21.08
2023-04-10T06:58:25.818Z,20.86
2023-04-10T06:59:57.357Z,18.36
2023-04-10T07:01:29.013Z,14.64
2023-04-10T07:03:00.838Z,16.25
2023-04-10T07:04:32.155Z,15.01
2023-04-10T07:06:03.789Z,13.40
2023-04-10T07:07:35.129Z,15.35
2023-04-10T07:09:06.448Z,13.88
2023-04-10T07:10:37.780Z,10.92
2023-04-10T07:12:09.242Z,9.70
2023-04-10T07:13:40.669Z,9.29
2023-04-10T07:15:12.014Z,9.54
2023-04-10T07:16:44.969Z,8.76
2023-04-10T07:18:16.553Z,9.66
2023-04-10T07:19:48.093Z,9.14
2023-04-10T07:21:19.460Z,8.89
2023-04-10T07:22:51.456Z,8.33
2023-04-10T07:24:22.910Z,9.16
2023-04-10T07:25:54.164Z,8.49
2023-04-10T07:27:25.832Z,8.19
2023-04-10T07:28:57.136Z,7.87
2023-04-10T07:30:28.762Z,8.86
2023-04-10T07:32:00.235Z,8.70
2023-04-10T07:33:31.686Z,8.52
2023-04-10T07:35:03.065Z,7.58
2023-04-10T07:36:34.378Z,6.73
2023-04-10T07:38:05.743Z,6.76
2023-04-10T07:39:37.090Z,6.05
2023-04-10T07:41:08.460Z,5.97
2023-04-10T07:42:39.898Z,6.46
2023-04-10T07:44:11.202Z,6.91
2023-04-10T07:45:42.658Z,6.03
2023-04-10T07:47:14.108Z,6.70
2023-04-10T07:48:45.547Z,6.00
2023-04-10T07:50:17.055Z,6.19
2023-04-10T07:51:48.405Z,5.29
2023-04-10T07:53:20.000Z,5.04
2023-04-10T07:54:51.616Z,5.54
2023-04-10T07:56:22.987Z,6.08
2023-04-10T07:57:54.346Z,4.81
2023-04-10T07:59:25.798Z,6.00
2023-04-10T08:00:57.504Z,5.23
2023-04-10T08:02:29.304Z,4.81
2023-04-10T08:04:03.859Z,4.60
2023-04-10T08:05:36.878Z,5.52
2023-04-10T08:07:13.231Z,4.68
2023-04-10T08:08:44.741Z,5.23
2023-04-10T08:10:16.090Z,4.80
2023-04-10T08:11:47.756Z,6.24
2023-04-10T08:13:19.285Z,5.36
2023-04-10T08:14:50.841Z,5.13
2023-04-10T08:16:27.371Z,5.92
2023-04-10T08:17:59.392Z,5.87
2023-04-10T08:19:30.952Z,6.52
2023-04-10T08:21:02.369Z,4.37
2023-04-10T08:22:33.896Z,5.61
2023-04-10T08:24:05.275Z,5.53
2023-04-10T08:25:36.767Z,6.51
2023-04-10T08:27:08.122Z,5.59
2023-04-10T08:28:39.431Z,5.54
2023-04-10T08:30:11.827Z,4.46
2023-04-10T08:31:43.350Z,5.10
2023-04-10T08:33:14.893Z,5.45
2023-04-10T08:34:48.598Z,4.54
2023-04-10T08:36:20.564Z,4.98
2023-04-10T08:38:07.827Z,4.60
2023-04-10T08:39:43.876Z,4.60
2023-04-10T08:41:15.281Z,4.54
2023-04-10T08:42:47.080Z,4.69
2023-04-10T08:44:19.167Z,5.67
2023-04-10T08:45:50.655Z,5.06
2023-04-10T08:47:22.420Z,4.61
2023-04-10T08:48:55.091Z,4.67
2023-04-10T08:50:26.623Z,5.37
2023-04-10T08:51:59.161Z,4.16
2023-04-10T08:53:30.507Z,3.96
2023-04-10T08:55:02.264Z,4.06
2023-04-10T08:56:33.872Z,5.01
2023-04-10T08:58:05.370Z,4.47
2023-04-10T08:59:36.741Z,3.93
2023-04-10T09:01:08.183Z,4.17
2023-04-10T09:02:42.240Z,4.18
2023-04-10T09:04:14.445Z,3.90
2023-04-10T09:05:45.839Z,4.08
2023-04-10T09:07:17.335Z,4.83
2023-04-10T09:08:48.802Z,4.51
2023-04-10T09:10:20.309Z,3.40
2023-04-10T09:11:51.782Z,4.21
2023-04-10T09:13:23.397Z,3.93
2023-04-10T09:14:54.843Z,3.85
2023-04-10T09:16:26.195Z,3.75
2023-04-10T09:17:57.741Z,4.03
2023-04-10T09:19:29.138Z,3.51
2023-04-10T09:21:00.992Z,3.16
2023-04-10T09:22:32.368Z,3.91
2023-04-10T09:24:03.748Z,3.87
2023-04-10T09:25:35.402Z,3.58
2023-04-10T09:27:06.808Z,3.58
2023-04-10T09:28:38.155Z,3.69
2023-04-10T09:30:10.797Z,4.06
2023-04-10T09:31:42.931Z,3.58
2023-04-10T09:33:14.551Z,4.23
2023-04-10T09:34:46.164Z,3.13
2023-04-10T09:36:17.565Z,3.47
2023-04-10T09:37:49.408Z,3.18
2023-04-10T09:39:20.920Z,2.94
2023-04-10T09:40:54.391Z,3.57
2023-04-10T09:42:26.434Z,3.21
2023-04-10T09:43:58.168Z,3.08
2023-04-10T09:45:29.920Z,3.77
2023-04-10T09:47:01.494Z,3.41
2023-04-10T09:48:32.822Z,2.72
2023-04-10T09:50:04.215Z,3.11
2023-04-10T09:51:35.585Z,4.44
2023-04-10T09:53:06.921Z,3.27
2023-04-10T09:54:38.526Z,3.04
2023-04-10T09:56:09.985Z,2.64
2023-04-10T09:57:41.325Z,3.15
2023-04-10T09:59:12.813Z,3.00
2023-04-10T10:00:44.529Z,2.65
2023-04-10T10:02:16.208Z,3.08
2023-04-10T10:03:48.022Z,2.70
2023-04-10T10:05:19.550Z,3.69
2023-04-10T10:06:50.841Z,3.18
2023-04-10T10:08:22.284Z,3.22
2023-04-10T10:09:53.674Z,3.17
2023-04-10T10:11:25.003Z,2.96
2023-04-10T10:12:56.405Z,3.24
2023-04-10T10:14:27.723Z,3.13
2023-04-10T10:15:59.353Z,3.32
2023-04-10T10:17:30.763Z,2.92
2023-04-10T10:19:02.407Z,3.25
2023-04-10T10:20:35.333Z,3.66
2023-04-10T10:22:07.479Z,2.99
2023-04-10T10:23:40.544Z,3.57
2023-04-10T10:25:12.136Z,3.10
2023-04-10T10:26:43.631Z,3.05
2023-04-10T10:28:16.513Z,3.29
2023-04-10T10:29:47.882Z,2.82
2023-04-10T10:31:19.298Z,3.26
2023-04-10T10:32:51.176Z,3.26
2023-04-10T10:34:22.776Z,2.76
2023-04-10T10:35:55.379Z,2.39
2023-04-10T10:37:26.956Z,2.50
2023-04-10T10:38:58.347Z,2.76
2023-04-10T10:40:29.853Z,2.46
2023-04-10T10:42:01.442Z,2.95
2023-04-10T10:43:33.163Z,3.17
2023-04-10T10:45:04.910Z,3.26
2023-04-10T10:46:36.369Z,3.76
2023-04-10T10:48:07.774Z,3.77
2023-04-10T10:49:39.416Z,3.28
2023-04-10T10:51:10.887Z,3.51
2023-04-10T10:52:42.381Z,3.14
2023-04-10T10:54:13.884Z,3.08
2023-04-10T10:55:45.880Z,3.16
2023-04-10T10:57:17.204Z,2.93
2023-04-10T10:58:48.969Z,3.11
2023-04-10T11:00:20.476Z,2.78
2023-04-10T11:01:52.251Z,3.05
2023-04-10T11:03:24.480Z,2.95
2023-04-10T11:04:56.020Z,3.91
2023-04-10T11:06:27.374Z,3.79
2023-04-10T11:07:58.733Z,3.07
2023-04-10T11:09:30.468Z,2.91
2023-04-10T11:11:02.011Z,3.36
2023-04-10T11:12:33.387Z,2.90
2023-04-10T11:14:05.231Z,3.14
2023-04-10T11:15:36.824Z,2.59
2023-04-10T11:17:08.402Z,3.21
2023-04-10T11:18:40.182Z,2.53
2023-04-10T11:20:11.818Z,3.11
2023-04-10T11:21:43.529Z,2.56
2023-04-10T11:23:14.899Z,2.92
2023-04-10T11:24:46.629Z,2.75
2023-04-10T11:26:18.138Z,2.78
2023-04-10T11:27:49.783Z,3.03
2023-04-10T11:29:21.333Z,2.76
2023-04-10T11:30:52.971Z,2.87
2023-04-10T11:32:24.419Z,3.04
2023-04-10T11:33:55.922Z,2.87
2023-04-10T11:35:27.465Z,2.55
2023-04-10T11:36:59.247Z,2.25
2023-04-10T11:38:30.810Z,3.07
2023-04-10T11:40:02.266Z,3.03
2023-04-10T11:41:33.747Z,2.93
2023-04-10T11:43:05.431Z,2.41
2023-04-10T11:44:36.994Z,2.66
2023-04-10T11:46:08.528Z,2.34
2023-04-10T11:47:40.908Z,2.78
2023-04-10T11:49:12.358Z,2.63
2023-04-10T11:50:44.095Z,2.79
2023-04-10T11:52:15.642Z,3.58
2023-04-10T11:53:47.240Z,4.02
2023-04-10T11:55:18.797Z,3.90
2023-04-10T11:56:50.269Z,2.96
2023-04-10T11:58:22.283Z,2.78
2023-04-10T11:59:53.725Z,2.51
2023-04-10T12:01:25.186Z,2.22
2023-04-10T12:02:56.886Z,2.86
2023-04-10T12:04:29.874Z,3.00
2023-04-10T12:06:01.535Z,2.71
2023-04-10T12:07:33.175Z,3.00
2023-04-10T12:09:04.759Z,2.54
2023-04-10T12:10:36.324Z,2.50
2023-04-10T12:12:07.886Z,2.70
2023-04-10T12:13:39.538Z,3.12
2023-04-10T12:15:10.963Z,3.15
2023-04-10T12:16:42.388Z,3.01
2023-04-10T12:18:14.204Z,3.26
2023-04-10T12:19:45.682Z,2.70
2023-04-10T12:21:17.371Z,2.75
2023-04-10T12:22:48.795Z,2.70
2023-04-10T12:24:20.189Z,2.88
2023-04-10T12:25:51.690Z,2.72
2023-04-10T12:27:23.103Z,2.60
2023-04-10T12:28:55.288Z,2.63
2023-04-10T12:32:29.092Z,2.11
2023-04-10T12:34:13.990Z,2.21
2023-04-10T12:36:06.471Z,2.26
2023-04-10T12:38:08.855Z,2.57
2023-04-10T12:40:03.820Z,2.62
2023-04-10T12:43:34.779Z,2.13
2023-04-10T12:45:06.196Z,2.78
2023-04-10T12:46:37.844Z,2.76
2023-04-10T12:50:35.808Z,2.95
2023-04-10T12:52:07.539Z,3.56
2023-04-10T12:53:54.347Z,2.99
2023-04-10T12:57:48.603Z,2.80
2023-04-10T12:59:38.067Z,3.27
2023-04-10T13:01:09.577Z,2.56
2023-04-10T13:02:41.746Z,2.41
2023-04-10T13:04:13.660Z,2.38
2023-04-10T13:05:45.353Z,2.77
2023-04-10T13:07:16.838Z,4.72
2023-04-10T13:08:48.252Z,3.12
2023-04-10T13:10:19.881Z,2.86
2023-04-10T13:11:51.963Z,3.22
2023-04-10T13:13:23.702Z,3.19
2023-04-10T13:14:55.268Z,2.46
2023-04-10T13:16:27.065Z,2.61
2023-04-10T13:17:58.894Z,2.24
2023-04-10T13:19:30.512Z,2.83
2023-04-10T13:21:01.994Z,2.97
2023-04-10T13:22:33.772Z,2.28
2023-04-10T13:24:22.059Z,3.87
2023-04-10T13:25:53.706Z,1.97
2023-04-10T13:27:25.166Z,2.13
2023-04-10T13:28:57.126Z,2.12
2023-04-10T13:30:28.948Z,3.03
2023-04-10T13:32:00.817Z,2.27
2023-04-10T13:33:32.843Z,2.46
2023-04-10T13:35:04.983Z,2.31
2023-04-10T13:36:36.755Z,2.71
2023-04-10T13:38:08.405Z,2.20
2023-04-10T13:39:39.829Z,2.17
2023-04-10T13:41:11.429Z,2.72
2023-04-10T13:42:43.007Z,2.34
2023-04-10T13:44:14.590Z,2.34
2023-04-10T13:45:46.124Z,1.97
2023-04-10T13:47:17.732Z,2.14
2023-04-10T13:48:49.490Z,2.18
2023-04-10T13:50:21.957Z,2.33
2023-04-10T13:51:53.686Z,2.16
2023-04-10T13:53:25.144Z,2.56
2023-04-10T13:54:56.659Z,2.05
2023-04-10T13:56:28.332Z,2.01
2023-04-10T13:57:59.795Z,2.23
2023-04-10T13:59:31.476Z,2.21
2023-04-10T14:01:03.084Z,1.82
2023-04-10T14:02:34.801Z,2.96
2023-04-10T14:04:06.602Z,2.15
2023-04-10T14:05:38.101Z,3.07
2023-04-10T14:07:09.511Z,2.70
2023-04-10T14:08:41.060Z,3.20
2023-04-10T14:10:12.409Z,2.63
2023-04-10T14:11:44.039Z,2.37
2023-04-10T14:13:16.902Z,2.06
2023-04-10T14:14:48.686Z,3.13
2023-04-10T14:16:20.614Z,2.37
2023-04-10T14:17:52.459Z,2.76
2023-04-10T14:19:23.959Z,2.74
2023-04-10T14:20:55.545Z,2.52
2023-04-10T14:22:26.982Z,2.39
2023-04-10T14:23:58.482Z,2.89
2023-04-10T14:25:30.208Z,3.44
2023-04-10T14:27:01.858Z,3.04
2023-04-10T14:28:33.689Z,2.53
2023-04-10T14:30:05.213Z,2.34
2023-04-10T14:31:44.195Z,2.60
2023-04-10T14:33:26.534Z,3.23
2023-04-10T14:34:58.024Z,2.70
2023-04-10T14:36:29.398Z,2.62
2023-04-10T14:38:01.032Z,2.56
2023-04-10T14:39:32.667Z,2.78
2023-04-10T14:41:04.513Z,2.59
2023-04-10T14:42:35.890Z,2.48
2023-04-10T14:44:07.597Z,2.69
2023-04-10T14:45:39.233Z,2.46
2023-04-10T14:47:10.905Z,2.51
2023-04-10T14:48:42.489Z,2.33
2023-04-10T14:50:13.971Z,2.89
2023-04-10T14:51:45.406Z,3.04
2023-04-10T14:53:17.218Z,2.98
2023-04-10T14:54:48.680Z,3.26
2023-04-10T14:56:20.387Z,3.60
2023-04-10T14:57:51.789Z,3.10
2023-04-10T14:59:23.238Z,3.37
2023-04-10T15:00:57.054Z,2.92
2023-04-10T15:02:28.715Z,2.52
2023-04-10T15:04:00.468Z,2.64
2023-04-10T15:05:32.487Z,3.87
2023-04-10T15:07:03.984Z,2.89
2023-04-10T15:08:35.301Z,2.39
2023-04-10T15:10:06.626Z,2.61
2023-04-10T15:11:38.199Z,2.51
2023-04-10T15:13:09.674Z,2.62
2023-04-10T15:14:41.316Z,2.95
2023-04-10T15:16:13.283Z,3.62
2023-04-10T15:17:44.630Z,2.77
2023-04-10T15:19:16.156Z,2.86
2023-04-10T15:20:47.479Z,2.73
2023-04-10T15:22:19.104Z,3.26
2023-04-10T15:23:50.476Z,2.94
2023-04-10T15:25:21.997Z,2.86
2023-04-10T15:26:53.769Z,2.96
2023-04-10T15:28:25.191Z,3.03
2023-04-10T15:29:56.521Z,3.46
2023-04-10T15:31:28.134Z,2.91
2023-04-10T15:32:59.729Z,3.48
2023-04-10T15:34:31.327Z,2.43
2023-04-10T15:36:02.831Z,3.54
2023-04-10T15:37:34.448Z,2.75
2023-04-10T15:39:05.788Z,2.97
2023-04-10T15:40:37.178Z,2.98
2023-04-10T15:42:08.655Z,3.14
2023-04-10T15:43:40.432Z,4.31
2023-04-10T15:45:13.946Z,3.18
2023-04-10T15:46:45.814Z,3.05
2023-04-10T15:48:17.445Z,3.42
2023-04-10T15:49:48.798Z,3.63
2023-04-10T15:51:20.300Z,3.69
2023-04-10T15:52:52.029Z,2.96
2023-04-10T15:54:23.545Z,3.56
2023-04-10T15:55:54.886Z,3.19
2023-04-10T15:57:26.449Z,3.51
2023-04-10T15:58:58.029Z,3.33
2023-04-10T16:00:29.593Z,3.45
2023-04-10T16:02:01.411Z,2.95
2023-04-10T16:03:32.890Z,3.42
2023-04-10T16:05:04.558Z,3.08
2023-04-10T16:06:36.083Z,3.38
2023-04-10T16:08:07.526Z,3.05
2023-04-10T16:09:38.853Z,4.06
2023-04-10T16:13:10.042Z,2.80
2023-04-10T16:14:41.529Z,2.99
2023-04-10T16:16:13.133Z,3.47
2023-04-10T16:17:55.008Z,3.54
2023-04-10T16:19:26.755Z,3.23
2023-04-10T16:20:58.188Z,3.53
2023-04-10T16:22:30.006Z,2.98
2023-04-10T16:24:01.474Z,4.21
2023-04-10T16:25:33.093Z,3.82
2023-04-10T16:27:04.488Z,3.94
2023-04-10T16:30:22.031Z,5.90
2023-04-10T16:31:53.846Z,3.61
2023-04-10T16:33:25.368Z,4.53
2023-04-10T16:34:57.086Z,3.16
2023-04-10T16:36:28.492Z,3.23
2023-04-10T16:38:01.182Z,3.83
2023-04-10T16:39:32.555Z,4.21
2023-04-10T16:41:03.882Z,3.55
2023-04-10T16:42:35.381Z,3.30
2023-04-10T16:44:06.838Z,3.65
2023-04-10T16:45:38.255Z,2.87
2023-04-10T16:47:09.757Z,3.43
2023-04-10T16:48:41.239Z,3.50
2023-04-10T16:50:12.649Z,3.47
2023-04-10T16:51:44.100Z,3.90
2023-04-10T16:53:20.503Z,3.02
2023-04-10T16:54:52.834Z,2.87
2023-04-10T16:56:24.198Z,3.04
2023-04-10T16:57:55.648Z,3.06
2023-04-10T16:59:26.971Z,3.42
2023-04-10T17:00:59.643Z,3.44
2023-04-10T17:02:31.236Z,2.92
2023-04-10T17:04:02.844Z,2.72
2023-04-10T17:05:39.333Z,3.41
2023-04-10T17:07:10.799Z,3.68
2023-04-10T17:08:42.295Z,3.82
2023-04-10T17:10:13.602Z,3.16
2023-04-10T17:11:45.070Z,5.69
2023-04-10T17:13:17.833Z,2.78
2023-04-10T17:14:50.971Z,2.57
2023-04-10T17:16:22.847Z,3.13
2023-04-10T17:17:54.374Z,3.19
2023-04-10T17:19:25.988Z,3.95
2023-04-10T17:20:57.697Z,3.48
2023-04-10T17:22:29.106Z,3.92
2023-04-10T17:24:00.526Z,3.49
2023-04-10T17:25:31.892Z,3.65
2023-04-10T17:27:03.683Z,4.14
2023-04-10T17:28:35.053Z,5.06
2023-04-10T17:30:06.519Z,5.03
2023-04-10T17:31:38.045Z,3.42
2023-04-10T17:33:09.442Z,3.21
2023-04-10T17:34:41.086Z,4.50
2023-04-10T17:36:12.820Z,4.37
2023-04-10T17:37:44.233Z,4.05
2023-04-10T17:39:15.678Z,3.60
2023-04-10T17:40:47.390Z,4.40
2023-04-10T17:42:19.025Z,4.37
2023-04-10T17:43:50.626Z,3.99
2023-04-10T17:45:22.055Z,7.07
2023-04-10T17:46:53.374Z,4.75
2023-04-10T17:48:24.887Z,4.54
2023-04-10T17:49:56.430Z,4.42
2023-04-10T17:51:28.839Z,4.75
2023-04-10T17:53:00.601Z,5.73
2023-04-10T17:54:31.964Z,5.90
2023-04-10T17:56:03.272Z,4.13
2023-04-10T17:57:35.788Z,7.71
2023-04-10T17:59:07.294Z,7.27
2023-04-10T18:00:38.703Z,5.80
2023-04-10T18:02:09.992Z,4.14
2023-04-10T18:03:42.052Z,4.72
2023-04-10T18:05:13.359Z,5.39
2023-04-10T18:06:44.676Z,6.25
2023-04-10T18:08:15.984Z,5.13
2023-04-10T18:09:47.657Z,5.44
2023-04-10T18:11:30.209Z,5.84
2023-04-10T18:13:02.149Z,6.54
2023-04-10T18:14:33.768Z,4.94
2023-04-10T18:16:05.224Z,5.73
2023-04-10T18:17:39.302Z,4.82
2023-04-10T18:19:12.999Z,3.80
2023-04-10T18:20:45.365Z,5.10
2023-04-10T18:22:16.765Z,3.89
2023-04-10T18:23:48.716Z,3.91
2023-04-10T18:25:20.836Z,5.74
2023-04-10T18:26:52.370Z,4.03
2023-04-10T18:28:23.649Z,3.93
2023-04-10T18:29:54.960Z,3.70
2023-04-10T18:31:26.334Z,3.49
2023-04-10T18:32:57.991Z,3.89
2023-04-10T18:36:50.677Z,5.43
2023-04-10T18:38:22.153Z,5.22
2023-04-10T18:39:55.415Z,3.84
2023-04-10T18:41:28.212Z,5.09
2023-04-10T18:42:59.725Z,4.44
2023-04-10T18:44:33.467Z,5.71
2023-04-10T18:46:06.067Z,3.80
2023-04-10T18:47:37.746Z,5.22
2023-04-10T18:49:09.239Z,7.16
2023-04-10T18:50:40.505Z,4.41
2023-04-10T18:52:11.843Z,5.06
2023-04-10T18:53:43.239Z,4.44
2023-04-10T18:55:14.617Z,4.72
2023-04-10T18:56:47.281Z,4.95
2023-04-10T18:58:18.647Z,4.78
2023-04-10T18:59:50.000Z,4.87
2023-04-10T19:01:21.277Z,4.69
2023-04-10T19:02:53.324Z,4.80
2023-04-10T19:04:24.893Z,5.01
2023-04-10T19:05:56.648Z,5.44
2023-04-10T19:07:28.056Z,6.88
2023-04-10T19:08:59.420Z,5.27
2023-04-10T19:10:30.821Z,4.04
2023-04-10T19:12:02.116Z,3.87
2023-04-10T19:13:33.363Z,3.98
2023-04-10T19:15:05.213Z,4.85
2023-04-10T19:16:36.660Z,4.75
2023-04-10T19:18:08.222Z,6.89
2023-04-10T19:19:39.663Z,5.44
2023-04-10T19:21:10.995Z,5.75
2023-04-10T19:22:43.407Z,5.28
2023-04-10T19:24:14.834Z,6.18
2023-04-10T19:25:46.794Z,6.81
2023-04-10T19:27:18.160Z,6.28
2023-04-10T19:28:49.581Z,6.50
2023-04-10T19:30:21.109Z,6.47
2023-04-10T19:31:52.573Z,7.11
2023-04-10T19:33:23.847Z,6.00
2023-04-10T19:34:55.700Z,5.87
2023-04-10T19:36:27.333Z,6.64
2023-04-10T19:37:58.851Z,5.25
2023-04-10T19:39:30.178Z,6.41
2023-04-10T19:41:01.645Z,5.53
2023-04-10T19:42:33.752Z,5.93
2023-04-10T19:44:05.089Z,6.44
2023-04-10T19:45:36.496Z,6.29
2023-04-10T19:47:07.786Z,7.51
2023-04-10T19:48:40.836Z,7.75
2023-04-10T19:50:12.136Z,6.72
2023-04-10T19:51:43.410Z,7.49
2023-04-10T19:53:15.151Z,6.16
2023-04-10T19:54:46.643Z,6.16
2023-04-10T19:56:17.934Z,6.21
2023-04-10T19:57:49.524Z,6.39
2023-04-10T19:59:21.934Z,5.43
2023-04-10T20:00:53.384Z,6.96
2023-04-10T20:02:25.893Z,6.71
2023-04-10T20:03:58.103Z,5.00
2023-04-10T20:05:29.501Z,5.85
2023-04-10T20:07:00.949Z,4.56
2023-04-10T20:08:32.756Z,5.79
2023-04-10T20:10:04.083Z,7.20
2023-04-10T20:11:35.411Z,5.19
2023-04-10T20:13:07.164Z,5.84
2023-04-10T20:14:38.572Z,7.45
2023-04-10T20:16:10.160Z,7.89
2023-04-10T20:17:41.506Z,7.94
2023-04-10T20:19:12.804Z,7.62
2023-04-10T20:20:44.372Z,7.01
2023-04-10T20:22:15.906Z,8.02
2023-04-10T20:23:48.273Z,7.70
2023-04-10T20:25:19.584Z,8.91